createdAt,value
2022-08-01T00:01:14.541Z,20.60
2022-08-01T00:03:41.167Z,20.60
2022-08-01T00:06:07.870Z,20.50
2022-08-01T00:08:34.494Z,20.50
2022-08-01T00:11:02.869Z,20.40
2022-08-01T00:13:29.669Z,20.40
2022-08-01T00:15:56.302Z,20.30
2022-08-01T00:18:22.982Z,20.30
2022-08-01T00:20:49.732Z,20.30
2022-08-01T00:23:16.329Z,20.30
2022-08-01T00:25:42.981Z,20.20
2022-08-01T00:28:09.591Z,20.30
2022-08-01T00:30:37.122Z,20.20
2022-08-01T00:33:04.128Z,20.30
2022-08-01T00:35:30.719Z,20.20
2022-08-01T00:37:57.403Z,20.30
2022-08-01T00:40:24.310Z,20.20
2022-08-01T00:42:50.991Z,20.30
2022-08-01T00:45:17.627Z,20.20
2022-08-01T00:47:46.286Z,20.20
2022-08-01T00:50:13.373Z,20.20
2022-08-01T00:52:41.508Z,20.10
2022-08-01T00:55:08.954Z,20.10
2022-08-01T00:58:05.103Z,20.00
2022-08-01T01:00:27.998Z,20.00
2022-08-01T01:02:54.922Z,20.00
2022-08-01T01:05:22.253Z,19.90
2022-08-01T01:08:03.720Z,19.90
2022-08-01T01:10:53.000Z,19.90
2022-08-01T01:13:29.777Z,19.80
2022-08-01T01:16:02.490Z,19.80
2022-08-01T01:18:36.445Z,19.70
2022-08-01T01:21:27.665Z,19.70
2022-08-01T01:23:54.221Z,19.70
2022-08-01T01:26:40.339Z,19.70
2022-08-01T01:29:06.882Z,19.60
2022-08-01T01:31:44.167Z,19.40
2022-08-01T01:34:13.436Z,19.40
2022-08-01T01:36:40.782Z,19.40
2022-08-01T01:39:07.851Z,19.40
2022-08-01T01:41:37.156Z,19.40
2022-08-01T01:44:05.166Z,19.30
2022-08-01T01:46:32.871Z,19.30
2022-08-01T01:49:00.420Z,19.30
2022-08-01T01:51:29.389Z,19.20
2022-08-01T01:53:57.052Z,19.20
2022-08-01T01:56:24.879Z,19.20
2022-08-01T01:58:55.828Z,19.10
2022-08-01T02:01:58.222Z,19.10
2022-08-01T02:04:14.507Z,19.10
2022-08-01T02:06:42.099Z,19.00
2022-08-01T02:09:09.982Z,19.00
2022-08-01T02:12:07.957Z,19.00
2022-08-01T02:14:29.127Z,19.00
2022-08-01T02:16:58.412Z,19.10
2022-08-01T02:19:25.103Z,19.10
2022-08-01T02:22:07.110Z,19.10
2022-08-01T02:24:55.498Z,19.00
2022-08-01T02:27:46.678Z,19.00
2022-08-01T02:30:14.777Z,19.10
2022-08-01T02:32:46.971Z,19.00
2022-08-01T02:35:22.100Z,19.00
2022-08-01T02:37:49.698Z,19.10
2022-08-01T02:40:18.591Z,19.10
2022-08-01T02:42:50.147Z,19.10
2022-08-01T02:45:19.714Z,19.20
2022-08-01T02:47:48.966Z,19.20
2022-08-01T02:50:17.091Z,19.20
2022-08-01T02:52:47.086Z,19.20
2022-08-01T02:55:14.860Z,19.20
2022-08-01T02:57:52.360Z,19.20
2022-08-01T03:00:20.063Z,19.20
2022-08-01T03:02:50.274Z,19.30
2022-08-01T03:05:18.486Z,19.20
2022-08-01T03:07:48.521Z,19.20
2022-08-01T03:10:17.124Z,19.10
2022-08-01T03:12:45.262Z,19.20
2022-08-01T03:15:15.410Z,19.10
2022-08-01T03:17:44.984Z,19.10
2022-08-01T03:20:14.408Z,19.10
2022-08-01T03:22:43.271Z,19.10
2022-08-01T03:25:11.461Z,19.10
2022-08-01T03:27:38.159Z,19.00
2022-08-01T03:30:06.019Z,19.00
2022-08-01T03:32:32.812Z,18.90
2022-08-01T03:34:59.580Z,18.80
2022-08-01T03:37:37.772Z,18.80
2022-08-01T03:40:10.675Z,18.80
2022-08-01T03:42:46.653Z,18.70
2022-08-01T03:45:22.270Z,18.60
2022-08-01T03:47:53.280Z,18.50
2022-08-01T03:50:23.222Z,18.50
2022-08-01T03:52:50.998Z,18.50
2022-08-01T03:55:19.490Z,18.50
2022-08-01T03:57:47.883Z,18.40
2022-08-01T04:00:14.953Z,18.30
2022-08-01T04:02:42.558Z,18.30
2022-08-01T04:05:09.626Z,18.30
2022-08-01T04:07:36.243Z,18.30
2022-08-01T04:10:03.013Z,18.30
2022-08-01T04:12:29.664Z,18.30
2022-08-01T04:14:56.266Z,18.40
2022-08-01T04:17:22.878Z,18.40
2022-08-01T04:19:49.457Z,18.50
2022-08-01T04:22:16.336Z,18.50
2022-08-01T04:24:47.720Z,18.50
2022-08-01T04:27:18.255Z,18.50
2022-08-01T04:30:06.552Z,18.50
2022-08-01T04:32:36.580Z,18.50
2022-08-01T04:35:23.448Z,18.50
2022-08-01T04:37:55.999Z,18.50
2022-08-01T04:40:23.462Z,18.50
2022-08-01T04:42:50.748Z,18.50
2022-08-01T04:45:17.824Z,18.60
2022-08-01T04:47:45.982Z,18.60
2022-08-01T04:50:12.929Z,18.80
2022-08-01T04:52:39.619Z,18.80
2022-08-01T04:55:07.736Z,18.90
2022-08-01T04:57:39.959Z,18.90
2022-08-01T05:00:07.300Z,19.00
2022-08-01T05:02:33.998Z,19.10
2022-08-01T05:05:00.817Z,19.20
2022-08-01T05:07:27.450Z,19.30
2022-08-01T05:09:54.090Z,19.40
2022-08-01T05:12:20.788Z,19.50
2022-08-01T05:14:47.425Z,19.60
2022-08-01T05:17:15.003Z,19.70
2022-08-01T05:19:42.626Z,19.80
2022-08-01T05:22:10.241Z,19.80
2022-08-01T05:24:40.135Z,19.90
2022-08-01T05:27:07.582Z,20.00
2022-08-01T05:29:34.861Z,20.10
2022-08-01T05:32:01.546Z,20.20
2022-08-01T05:34:29.090Z,20.20
2022-08-01T05:36:57.880Z,20.40
2022-08-01T05:39:24.683Z,20.50
2022-08-01T05:41:51.370Z,20.60
2022-08-01T05:44:18.120Z,20.70
2022-08-01T05:46:44.916Z,20.80
2022-08-01T05:49:11.625Z,20.80
2022-08-01T05:51:38.291Z,21.00
2022-08-01T05:54:05.346Z,21.00
2022-08-01T05:56:32.463Z,21.00
2022-08-01T05:58:59.166Z,21.20
2022-08-01T06:01:25.837Z,21.30
2022-08-01T06:03:52.699Z,21.40
2022-08-01T06:06:19.330Z,21.40
2022-08-01T06:08:52.144Z,21.40
2022-08-01T06:11:18.779Z,21.50
2022-08-01T06:13:48.246Z,21.50
2022-08-01T06:16:16.300Z,21.60
2022-08-01T06:18:43.069Z,21.60
2022-08-01T06:21:09.678Z,21.60
2022-08-01T06:23:36.335Z,21.70
2022-08-01T06:26:03.045Z,21.70
2022-08-01T06:28:29.990Z,21.60
2022-08-01T06:30:56.626Z,21.70
2022-08-01T06:33:23.241Z,21.70
2022-08-01T06:35:49.948Z,21.70
2022-08-01T06:38:16.610Z,21.90
2022-08-01T06:40:43.460Z,21.90
2022-08-01T06:43:10.129Z,21.90
2022-08-01T06:45:36.767Z,22.10
2022-08-01T06:48:03.795Z,22.10
2022-08-01T06:50:30.532Z,22.20
2022-08-01T06:52:57.141Z,22.40
2022-08-01T06:55:23.951Z,22.40
2022-08-01T06:57:52.583Z,22.60
2022-08-01T07:00:21.020Z,22.70
2022-08-01T07:02:47.733Z,22.70
2022-08-01T07:05:14.367Z,22.70
2022-08-01T07:07:42.058Z,22.70
2022-08-01T07:10:09.193Z,23.00
2022-08-01T07:12:36.485Z,23.20
2022-08-01T07:15:07.198Z,23.20
2022-08-01T07:17:36.957Z,23.30
2022-08-01T07:20:03.971Z,23.30
2022-08-01T07:22:31.090Z,23.30
2022-08-01T07:24:58.264Z,23.20
2022-08-01T07:27:26.047Z,23.30
2022-08-01T07:29:53.632Z,23.40
2022-08-01T07:32:20.617Z,23.60
2022-08-01T07:34:47.244Z,23.70
2022-08-01T07:37:13.878Z,23.80
2022-08-01T07:39:40.552Z,23.70
2022-08-01T07:42:08.497Z,23.70
2022-08-01T07:44:36.356Z,23.80
2022-08-01T07:47:03.317Z,23.80
2022-08-01T07:49:30.383Z,23.80
2022-08-01T07:52:13.562Z,24.00
2022-08-01T07:54:40.397Z,24.20
2022-08-01T07:57:07.061Z,24.20
2022-08-01T07:59:33.789Z,24.10
2022-08-01T08:02:00.725Z,24.20
2022-08-01T08:04:28.325Z,24.20
2022-08-01T08:06:55.406Z,24.20
2022-08-01T08:09:22.426Z,24.10
2022-08-01T08:11:49.888Z,24.20
2022-08-01T08:14:17.630Z,24.30
2022-08-01T08:16:44.423Z,24.40
2022-08-01T08:19:11.452Z,24.60
2022-08-01T08:21:38.530Z,24.70
2022-08-01T08:24:05.386Z,24.70
2022-08-01T08:26:31.993Z,24.90
2022-08-01T08:28:58.640Z,25.00
2022-08-01T08:31:51.425Z,25.00
2022-08-01T08:34:12.589Z,25.30
2022-08-01T08:36:39.546Z,25.50
2022-08-01T08:39:14.842Z,25.30
2022-08-01T08:41:41.473Z,25.20
2022-08-01T08:44:10.669Z,25.20
2022-08-01T08:46:43.840Z,25.50
2022-08-01T08:49:12.581Z,25.40
2022-08-01T08:51:42.149Z,25.60
2022-08-01T08:54:11.327Z,25.50
2022-08-01T08:56:38.802Z,25.70
2022-08-01T08:59:05.609Z,25.80
2022-08-01T09:01:33.100Z,25.80
2022-08-01T09:03:59.943Z,25.70
2022-08-01T09:06:26.564Z,25.70
2022-08-01T09:08:54.345Z,25.90
2022-08-01T09:11:23.061Z,26.20
2022-08-01T09:14:10.165Z,26.20
2022-08-01T09:16:47.949Z,26.10
2022-08-01T09:19:40.706Z,26.50
2022-08-01T09:22:08.957Z,26.60
2022-08-01T09:24:36.797Z,26.50
2022-08-01T09:27:17.586Z,26.50
2022-08-01T09:29:49.961Z,26.50
2022-08-01T09:32:34.255Z,26.30
2022-08-01T09:35:43.393Z,26.60
2022-08-01T09:38:24.249Z,26.40
2022-08-01T09:41:01.886Z,26.20
2022-08-01T09:43:31.599Z,26.60
2022-08-01T09:45:59.148Z,26.80
2022-08-01T09:48:27.797Z,26.80
2022-08-01T09:50:55.715Z,27.00
2022-08-01T09:53:51.884Z,27.20
2022-08-01T09:56:21.276Z,27.50
2022-08-01T09:59:01.426Z,27.70
2022-08-01T10:01:41.911Z,27.80
2022-08-01T10:04:16.932Z,28.00
2022-08-01T10:06:47.135Z,27.80
2022-08-01T10:09:14.735Z,27.50
2022-08-01T10:11:44.938Z,27.10
2022-08-01T10:14:12.236Z,27.10
2022-08-01T10:16:39.962Z,27.30
2022-08-01T10:19:11.268Z,27.40
2022-08-01T10:21:47.585Z,27.10
2022-08-01T10:24:25.172Z,27.00
2022-08-01T10:26:55.837Z,26.90
2022-08-01T10:29:46.124Z,27.00
2022-08-01T10:32:12.492Z,27.20
2022-08-01T10:34:39.444Z,27.70
2022-08-01T10:37:13.625Z,27.90
2022-08-01T10:39:40.990Z,27.80
2022-08-01T10:42:11.144Z,27.60
2022-08-01T10:44:43.283Z,27.60
2022-08-01T10:47:17.080Z,27.40
2022-08-01T10:49:50.780Z,27.60
2022-08-01T10:52:19.663Z,27.90
2022-08-01T10:54:52.878Z,28.20
2022-08-01T10:57:23.124Z,28.20
2022-08-01T10:59:59.581Z,28.10
2022-08-01T11:02:31.767Z,28.40
2022-08-01T11:05:04.220Z,28.70
2022-08-01T11:07:53.335Z,28.90
2022-08-01T11:10:28.585Z,28.80
2022-08-01T11:12:55.515Z,28.90
2022-08-01T11:15:30.271Z,28.90
2022-08-01T11:17:58.425Z,28.90
2022-08-01T11:20:29.991Z,29.20
2022-08-01T11:23:03.177Z,29.20
2022-08-01T11:25:58.406Z,29.10
2022-08-01T11:28:33.858Z,29.20
2022-08-01T11:31:11.334Z,29.40
2022-08-01T11:33:45.782Z,29.50
2022-08-01T11:36:12.891Z,29.10
2022-08-01T11:38:46.273Z,28.90
2022-08-01T11:41:16.169Z,28.70
2022-08-01T11:44:03.616Z,28.60
2022-08-01T11:46:56.388Z,28.40
2022-08-01T11:49:23.749Z,28.00
2022-08-01T11:52:09.339Z,27.80
2022-08-01T11:54:39.219Z,27.70
2022-08-01T11:57:11.911Z,27.60
2022-08-01T12:00:03.239Z,27.40
2022-08-01T12:02:35.402Z,27.30
2022-08-01T12:05:05.802Z,27.30
2022-08-01T12:07:36.961Z,27.30
2022-08-01T12:10:16.244Z,27.30
2022-08-01T12:12:47.166Z,27.50
2022-08-01T12:15:14.629Z,27.40
2022-08-01T12:17:57.575Z,27.40
2022-08-01T12:20:32.844Z,27.40
2022-08-01T12:23:03.705Z,27.30
2022-08-01T12:25:30.667Z,27.40
2022-08-01T12:28:01.803Z,27.30
2022-08-01T12:30:28.723Z,27.40
2022-08-01T12:32:55.661Z,27.40
2022-08-01T12:35:27.162Z,27.40
2022-08-01T12:37:58.981Z,27.60
2022-08-01T12:40:27.921Z,27.80
2022-08-01T12:42:59.839Z,27.90
2022-08-01T12:45:28.726Z,27.90
2022-08-01T12:47:56.413Z,27.80
2022-08-01T12:50:25.585Z,27.60
2022-08-01T12:52:52.877Z,27.70
2022-08-01T12:55:24.973Z,27.70
2022-08-01T12:58:16.007Z,27.70
2022-08-01T13:00:45.637Z,27.50
2022-08-01T13:03:13.869Z,27.40
2022-08-01T13:05:47.804Z,27.40
2022-08-01T13:08:16.734Z,27.20
2022-08-01T13:10:44.315Z,27.20
2022-08-01T13:13:11.665Z,27.20
2022-08-01T13:15:49.035Z,27.30
2022-08-01T13:18:32.887Z,27.40
2022-08-01T13:21:18.344Z,27.80
2022-08-01T13:24:06.866Z,28.10
2022-08-01T13:26:43.663Z,28.40
2022-08-01T13:29:11.575Z,28.80
2022-08-01T13:31:40.044Z,29.20
2022-08-01T13:34:07.218Z,29.40
2022-08-01T13:36:34.360Z,29.50
2022-08-01T13:39:01.589Z,29.40
2022-08-01T13:41:28.538Z,29.40
2022-08-01T13:43:58.657Z,29.50
2022-08-01T13:46:26.078Z,29.10
2022-08-01T13:48:56.357Z,28.80
2022-08-01T13:51:23.012Z,28.70
2022-08-01T13:53:49.750Z,28.50
2022-08-01T13:56:16.395Z,28.30
2022-08-01T13:58:43.036Z,28.20
2022-08-01T14:01:09.791Z,27.90
2022-08-01T14:03:36.451Z,27.80
2022-08-01T14:06:03.305Z,27.90
2022-08-01T14:08:29.982Z,27.80
2022-08-01T14:10:57.882Z,27.40
2022-08-01T14:13:25.034Z,27.10
2022-08-01T14:15:57.034Z,26.50
2022-08-01T14:18:23.644Z,26.10
2022-08-01T14:20:53.755Z,25.70
2022-08-01T14:23:22.054Z,25.40
2022-08-01T14:26:02.808Z,24.70
2022-08-01T14:28:33.601Z,24.40
2022-08-01T14:31:00.733Z,23.80
2022-08-01T14:33:27.918Z,23.70
2022-08-01T14:36:21.282Z,23.30
2022-08-01T14:38:41.566Z,22.90
2022-08-01T14:41:08.220Z,22.90
2022-08-01T14:43:34.850Z,22.90
2022-08-01T14:46:02.473Z,22.90
2022-08-01T14:48:30.241Z,22.80
2022-08-01T14:50:58.077Z,22.80
2022-08-01T14:53:24.733Z,22.70
2022-08-01T14:55:51.559Z,22.60
2022-08-01T14:58:18.178Z,22.60
2022-08-01T15:00:44.875Z,22.60
2022-08-01T15:03:11.537Z,22.60
2022-08-01T15:05:38.212Z,22.60
2022-08-01T15:08:07.020Z,22.40
2022-08-01T15:10:33.693Z,22.60
2022-08-01T15:13:00.488Z,22.60
2022-08-01T15:15:27.881Z,22.70
2022-08-01T15:17:54.588Z,22.60
2022-08-01T15:20:21.259Z,22.80
2022-08-01T15:22:47.931Z,22.60
2022-08-01T15:25:14.590Z,22.60
2022-08-01T15:27:41.277Z,22.50
2022-08-01T15:30:08.416Z,22.60
2022-08-01T15:32:35.053Z,22.70
2022-08-01T15:35:01.682Z,22.60
2022-08-01T15:37:28.327Z,22.60
2022-08-01T15:39:56.762Z,22.40
2022-08-01T15:42:25.322Z,22.20
2022-08-01T15:44:53.494Z,22.10
2022-08-01T15:47:20.118Z,22.00
2022-08-01T15:49:46.722Z,22.10
2022-08-01T15:52:21.785Z,22.00
2022-08-01T15:54:49.803Z,22.10
2022-08-01T15:57:16.574Z,22.10
2022-08-01T15:59:43.552Z,22.10
2022-08-01T16:02:10.849Z,22.20
2022-08-01T16:04:38.725Z,22.10
2022-08-01T16:07:05.983Z,22.10
2022-08-01T16:09:32.606Z,22.00
2022-08-01T16:17:44.500Z,22.10
2022-08-01T16:20:11.595Z,22.10
2022-08-01T16:22:38.244Z,22.20
2022-08-01T16:25:05.519Z,22.20
2022-08-01T16:27:32.160Z,22.40
2022-08-01T16:29:58.789Z,22.60
2022-08-01T16:32:29.031Z,22.80
2022-08-01T16:35:09.177Z,22.80
2022-08-01T16:37:36.094Z,23.00
2022-08-01T16:40:03.532Z,23.00
2022-08-01T16:42:30.155Z,23.10
2022-08-01T16:44:56.910Z,23.10
2022-08-01T16:47:23.531Z,23.20
2022-08-01T16:49:50.178Z,23.20
2022-08-01T16:52:16.878Z,23.30
2022-08-01T16:54:43.491Z,23.30
2022-08-01T16:57:10.729Z,23.30
2022-08-01T16:59:41.494Z,23.30
2022-08-01T17:02:09.509Z,23.30
2022-08-01T17:04:36.212Z,23.20
2022-08-01T17:07:02.897Z,23.20
2022-08-01T17:09:29.500Z,23.20
2022-08-01T17:11:56.206Z,23.10
2022-08-01T17:14:22.844Z,23.10
2022-08-01T17:16:49.521Z,23.10
2022-08-01T17:19:16.231Z,23.00
2022-08-01T17:21:42.980Z,22.90
2022-08-01T17:24:10.109Z,22.90
2022-08-01T17:26:38.269Z,22.90
2022-08-01T17:29:04.912Z,22.80
2022-08-01T17:31:31.560Z,22.70
2022-08-01T17:33:58.220Z,22.60
2022-08-01T17:36:24.926Z,22.70
2022-08-01T17:38:51.624Z,22.60
2022-08-01T17:41:18.319Z,22.60
2022-08-01T17:43:44.923Z,22.60
2022-08-01T17:46:11.571Z,22.50
2022-08-01T17:48:38.200Z,22.30
2022-08-01T17:51:04.909Z,22.30
2022-08-01T17:53:31.722Z,22.30
2022-08-01T17:55:58.354Z,22.30
2022-08-01T17:58:36.812Z,22.30
2022-08-01T18:01:14.096Z,22.30
2022-08-01T18:03:41.697Z,22.30
2022-08-01T18:06:09.753Z,22.30
2022-08-01T18:08:36.546Z,22.30
2022-08-01T18:11:03.269Z,22.20
2022-08-01T18:13:30.046Z,22.20
2022-08-01T18:15:57.384Z,22.10
2022-08-01T18:18:33.537Z,22.10
2022-08-01T18:21:01.881Z,22.10
2022-08-01T18:23:28.618Z,22.10
2022-08-01T18:25:55.334Z,22.00
2022-08-01T18:28:31.510Z,21.90
2022-08-01T18:31:02.105Z,21.90
2022-08-01T18:33:28.771Z,21.80
2022-08-01T18:35:55.371Z,21.80
2022-08-01T18:38:27.337Z,21.70
2022-08-01T18:40:53.974Z,21.70
2022-08-01T18:43:20.759Z,21.60
2022-08-01T18:45:47.394Z,21.70
2022-08-01T18:48:14.013Z,21.60
2022-08-01T18:50:40.704Z,21.50
2022-08-01T18:53:07.384Z,21.50
2022-08-01T18:55:34.023Z,21.60
2022-08-01T18:58:00.632Z,21.70
2022-08-01T19:00:27.332Z,21.50
2022-08-01T19:02:54.103Z,21.60
2022-08-01T19:05:20.802Z,21.60
2022-08-01T19:08:06.840Z,21.70
2022-08-01T19:10:35.687Z,21.60
2022-08-01T19:13:02.408Z,21.40
2022-08-01T19:15:29.282Z,21.40
2022-08-01T19:17:55.919Z,21.40
2022-08-01T19:20:22.665Z,21.40
2022-08-01T19:22:49.309Z,21.20
2022-08-01T19:25:16.201Z,21.20
2022-08-01T19:27:52.362Z,21.10
2022-08-01T19:30:19.559Z,21.00
2022-08-01T19:32:47.656Z,21.00
2022-08-01T19:35:15.545Z,21.00
2022-08-01T19:37:43.607Z,21.10
2022-08-01T19:40:10.882Z,21.20
2022-08-01T19:42:55.701Z,21.20
2022-08-01T19:45:22.515Z,21.20
2022-08-01T19:47:56.395Z,21.30
2022-08-01T19:50:26.348Z,21.20
2022-08-01T19:52:53.209Z,21.20
2022-08-01T19:55:21.125Z,21.20
2022-08-01T19:58:16.924Z,21.20
2022-08-01T20:00:38.364Z,21.20
2022-08-01T20:03:07.053Z,21.20
2022-08-01T20:05:34.355Z,21.10
2022-08-01T20:08:01.169Z,21.00
2022-08-01T20:10:30.246Z,21.00
2022-08-01T20:12:57.511Z,20.90
2022-08-01T20:15:25.226Z,20.70
2022-08-01T20:17:51.866Z,20.70
2022-08-01T20:20:18.721Z,20.60
2022-08-01T20:22:48.826Z,20.60
2022-08-01T20:25:17.977Z,20.60
2022-08-01T20:27:45.326Z,20.60
2022-08-01T20:30:12.231Z,20.50
2022-08-01T20:32:39.580Z,20.50
2022-08-01T20:35:07.248Z,20.50
2022-08-01T20:38:05.784Z,20.50
2022-08-01T20:40:27.007Z,20.30
2022-08-01T20:42:55.319Z,20.40
2022-08-01T20:45:23.825Z,20.40
2022-08-01T20:47:50.759Z,20.30
2022-08-01T20:50:27.800Z,20.30
2022-08-01T20:53:04.911Z,20.30
2022-08-01T20:55:49.196Z,20.30
2022-08-01T20:58:31.652Z,20.20
2022-08-01T21:01:00.577Z,20.10
2022-08-01T21:03:36.754Z,20.20
2022-08-01T21:06:13.432Z,20.20
2022-08-01T21:08:45.467Z,20.10
2022-08-01T21:11:19.369Z,20.10
2022-08-01T21:13:47.786Z,20.10
2022-08-01T21:16:24.426Z,20.10
2022-08-01T21:19:19.130Z,20.00
2022-08-01T21:22:10.486Z,19.90
2022-08-01T21:24:58.279Z,19.70
2022-08-01T21:27:33.755Z,19.60
2022-08-01T21:30:04.009Z,19.60
2022-08-01T21:32:32.822Z,19.50
2022-08-01T21:35:01.473Z,19.40
2022-08-01T21:37:29.635Z,19.20
2022-08-01T21:39:59.075Z,19.10
2022-08-01T21:42:28.594Z,19.00
2022-08-01T21:44:59.738Z,18.90
2022-08-01T21:47:28.814Z,18.70
2022-08-01T21:50:00.800Z,18.60
2022-08-01T21:52:50.663Z,18.40
2022-08-01T21:55:34.703Z,18.30
2022-08-01T21:58:20.511Z,18.20
2022-08-01T22:00:52.978Z,18.10
2022-08-01T22:03:34.487Z,18.00
2022-08-01T22:06:03.754Z,18.10
2022-08-01T22:08:34.116Z,18.10
2022-08-01T22:11:06.890Z,18.20
2022-08-01T22:13:36.991Z,18.30
2022-08-01T22:16:06.300Z,18.50
2022-08-01T22:18:35.633Z,18.50
2022-08-01T22:21:03.324Z,18.50
2022-08-01T22:23:30.787Z,18.50
2022-08-01T22:25:57.395Z,18.60
2022-08-01T22:28:24.110Z,18.50
2022-08-01T22:30:51.937Z,18.40
2022-08-01T22:33:19.029Z,18.40
2022-08-01T22:35:48.247Z,18.30
2022-08-01T22:38:17.470Z,18.20
2022-08-01T22:41:14.111Z,18.20
2022-08-01T22:43:59.165Z,18.20
2022-08-01T22:46:43.406Z,18.20
2022-08-01T22:49:30.851Z,18.20
2022-08-01T22:52:20.803Z,18.10
2022-08-01T22:54:51.387Z,18.10
2022-08-01T22:57:30.230Z,18.00
2022-08-01T23:00:04.856Z,18.00
2022-08-01T23:02:34.794Z,18.10
2022-08-01T23:05:07.549Z,18.10
2022-08-01T23:07:38.946Z,18.00
2022-08-01T23:10:07.886Z,18.00
2022-08-01T23:12:34.624Z,17.90
2022-08-01T23:15:01.278Z,17.90
2022-08-01T23:17:30.140Z,17.80
2022-08-01T23:19:58.601Z,17.90
2022-08-01T23:22:31.562Z,18.00
2022-08-01T23:25:05.057Z,18.00
2022-08-01T23:27:54.359Z,17.90
2022-08-01T23:30:24.771Z,17.90
2022-08-01T23:32:51.383Z,17.90
2022-08-01T23:35:18.061Z,17.80
2022-08-01T23:37:44.858Z,17.80
2022-08-01T23:40:11.987Z,17.80
2022-08-01T23:42:38.662Z,17.80
2022-08-01T23:45:05.710Z,17.70
2022-08-01T23:47:32.309Z,17.80
2022-08-01T23:49:58.949Z,17.80
2022-08-01T23:52:28.013Z,17.80
2022-08-01T23:54:59.742Z,17.80
2022-08-01T23:57:30.203Z,17.80
2022-08-01T23:59:56.839Z,17.70
